createdAt,value
2017-09-09T03:31:39.860Z,59.80
2017-09-09T03:34:07.450Z,59.80
2017-09-09T03:36:35.522Z,59.70
2017-09-09T03:39:03.113Z,60.00
2017-09-09T03:41:31.472Z,59.60
2017-09-09T03:43:59.421Z,59.50
2017-09-09T03:46:27.037Z,58.90
2017-09-09T03:48:54.696Z,58.90
2017-09-09T03:51:23.067Z,59.40
2017-09-09T03:53:51.428Z,59.40
2017-09-09T03:56:20.193Z,59.90
2017-09-09T03:58:47.818Z,59.70
2017-09-09T04:01:15.429Z,60.00
2017-09-09T04:03:43.491Z,60.10
2017-09-09T04:06:11.101Z,59.50
2017-09-09T04:08:38.690Z,59.50
2017-09-09T04:11:06.402Z,59.30
2017-09-09T04:13:34.760Z,59.80
2017-09-09T04:16:02.833Z,59.80
2017-09-09T04:18:30.428Z,60.30
2017-09-09T04:20:58.018Z,60.60
2017-09-09T04:23:25.664Z,60.90
2017-09-09T04:25:53.249Z,61.20
2017-09-09T04:28:21.220Z,61.10
2017-09-09T04:30:48.828Z,61.00
2017-09-09T04:33:17.181Z,61.30
2017-09-09T04:35:44.802Z,61.20
2017-09-09T04:38:12.399Z,61.20
2017-09-09T04:40:40.382Z,61.00
2017-09-09T04:43:08.751Z,61.50
2017-09-09T04:45:36.365Z,61.30
2017-09-09T04:48:04.355Z,61.50
2017-09-09T04:50:31.953Z,61.40
2017-09-09T04:53:00.339Z,61.90
2017-09-09T04:55:29.099Z,61.40
2017-09-09T04:57:56.697Z,61.40
2017-09-09T05:00:25.054Z,61.50
2017-09-09T05:02:52.680Z,61.50
2017-09-09T05:05:20.282Z,61.90
2017-09-09T05:07:49.012Z,62.10
2017-09-09T05:10:16.619Z,62.10
2017-09-09T05:12:44.994Z,62.50
2017-09-09T05:15:12.633Z,62.40
2017-09-09T05:17:44.697Z,62.60
2017-09-09T05:20:12.878Z,62.90
2017-09-09T05:22:40.514Z,63.60
2017-09-09T05:25:08.122Z,63.60
2017-09-09T05:27:36.610Z,63.40
2017-09-09T05:30:05.506Z,62.80
2017-09-09T05:32:34.247Z,62.50
2017-09-09T05:35:01.845Z,62.30
2017-09-09T05:37:29.452Z,62.30
2017-09-09T05:39:57.573Z,62.50
2017-09-09T05:42:25.195Z,62.50
2017-09-09T05:44:52.793Z,62.30
2017-09-09T05:47:20.790Z,63.20
2017-09-09T05:49:48.393Z,62.20
2017-09-09T05:52:15.977Z,62.10
2017-09-09T05:54:43.597Z,62.00
2017-09-09T05:57:11.179Z,61.50
2017-09-09T05:59:39.160Z,61.00
2017-09-09T06:02:06.811Z,60.70
2017-09-09T06:04:34.426Z,59.60
2017-09-09T06:07:02.061Z,59.50
2017-09-09T06:09:29.650Z,59.80
2017-09-09T06:11:57.672Z,60.10
2017-09-09T06:14:25.270Z,60.20
2017-09-09T06:16:53.629Z,60.20
2017-09-09T06:19:22.006Z,60.40
2017-09-09T06:21:49.615Z,59.90
2017-09-09T06:24:17.222Z,59.90
2017-09-09T06:26:45.304Z,59.80
2017-09-09T06:29:13.703Z,60.50
2017-09-09T06:31:41.304Z,59.70
2017-09-09T06:34:08.935Z,59.60
2017-09-09T06:36:36.543Z,59.50
2017-09-09T06:39:04.492Z,59.40
2017-09-09T06:41:32.080Z,58.90
2017-09-09T06:43:59.672Z,58.80
2017-09-09T06:46:29.241Z,59.20
2017-09-09T06:48:56.849Z,59.10
2017-09-09T06:51:24.445Z,58.70
2017-09-09T06:53:52.432Z,58.10
2017-09-09T06:56:20.030Z,58.50
2017-09-09T06:58:47.618Z,58.40
2017-09-09T07:01:15.626Z,58.60
2017-09-09T07:03:43.220Z,59.00
2017-09-09T07:06:11.695Z,59.20
2017-09-09T07:08:40.085Z,59.50
2017-09-09T07:11:07.681Z,59.50
2017-09-09T07:13:35.684Z,59.50
2017-09-09T07:16:03.285Z,60.00
2017-09-09T07:18:30.880Z,59.10
2017-09-09T07:20:58.942Z,59.40
2017-09-09T07:23:26.586Z,58.40
2017-09-09T07:25:54.192Z,58.50
2017-09-09T07:28:21.787Z,57.80
2017-09-09T07:30:50.156Z,57.80
2017-09-09T07:33:18.900Z,57.70
2017-09-09T07:35:46.576Z,57.60
2017-09-09T07:38:14.180Z,57.30
2017-09-09T07:40:41.803Z,56.90
2017-09-09T07:43:09.444Z,56.60
2017-09-09T07:45:37.441Z,57.10
2017-09-09T07:48:05.810Z,57.50
2017-09-09T07:50:33.410Z,57.50
2017-09-09T07:53:01.029Z,56.90
2017-09-09T07:55:28.630Z,57.10
2017-09-09T07:57:56.649Z,57.20
2017-09-09T08:00:24.485Z,57.00
2017-09-09T08:02:52.085Z,57.30
2017-09-09T08:05:19.713Z,57.80
2017-09-09T08:07:47.323Z,58.40
2017-09-09T08:10:16.258Z,58.40
2017-09-09T08:12:43.861Z,58.40
2017-09-09T08:15:11.460Z,58.70
2017-09-09T08:17:39.072Z,57.80
2017-09-09T08:20:06.676Z,57.20
2017-09-09T08:22:35.604Z,57.30
2017-09-09T08:25:03.238Z,57.30
2017-09-09T08:27:31.028Z,57.20
2017-09-09T08:29:58.692Z,56.90
2017-09-09T08:32:26.300Z,56.90
2017-09-09T08:34:55.048Z,57.90
2017-09-09T08:37:22.661Z,57.90
2017-09-09T08:39:51.207Z,58.20
2017-09-09T08:42:19.289Z,58.20
2017-09-09T08:44:46.897Z,57.10
2017-09-09T08:47:14.505Z,57.50
2017-09-09T08:49:42.605Z,57.50
2017-09-09T08:52:10.947Z,58.10
2017-09-09T08:54:38.552Z,57.40
2017-09-09T08:57:06.589Z,57.70
2017-09-09T08:59:34.205Z,57.90
2017-09-09T09:02:01.810Z,58.20
2017-09-09T09:04:29.874Z,58.20
2017-09-09T09:06:57.505Z,58.00
2017-09-09T09:09:25.170Z,57.70
2017-09-09T09:11:52.784Z,58.40
2017-09-09T09:14:21.247Z,58.60
2017-09-09T09:16:50.020Z,59.60
2017-09-09T09:19:17.632Z,59.00
2017-09-09T09:21:45.248Z,59.20
2017-09-09T09:24:13.321Z,59.20
2017-09-09T09:26:40.941Z,59.30
2017-09-09T09:29:08.541Z,59.00
2017-09-09T09:31:36.183Z,59.10
2017-09-09T09:34:03.833Z,59.00
2017-09-09T09:36:31.783Z,59.10
2017-09-09T09:38:59.389Z,59.00
2017-09-09T09:41:26.990Z,60.00
2017-09-09T09:43:55.365Z,60.30
2017-09-09T09:46:22.967Z,60.30
2017-09-09T09:48:50.940Z,60.00
2017-09-09T09:51:18.557Z,59.70
2017-09-09T09:53:46.934Z,59.10
2017-09-09T09:56:15.312Z,58.80
2017-09-09T09:58:43.689Z,58.80
2017-09-09T10:01:12.442Z,59.00
2017-09-09T10:03:40.067Z,59.00
2017-09-09T10:06:07.673Z,58.40
2017-09-09T10:08:35.642Z,58.40
2017-09-09T10:11:03.242Z,58.90
2017-09-09T10:13:30.849Z,58.90
2017-09-09T10:15:58.487Z,59.00
2017-09-09T10:18:26.097Z,58.70
2017-09-09T10:20:54.880Z,58.50
2017-09-09T10:23:22.481Z,58.60
2017-09-09T10:25:50.583Z,58.60
2017-09-09T10:28:18.227Z,58.00
2017-09-09T10:30:45.849Z,57.80
2017-09-09T10:33:14.610Z,59.30
2017-09-09T10:35:42.212Z,59.20
2017-09-09T10:38:09.815Z,59.30
2017-09-09T10:40:37.440Z,58.50
2017-09-09T10:43:05.046Z,58.90
2017-09-09T10:45:33.131Z,58.80
2017-09-09T10:48:00.750Z,58.60
2017-09-09T10:50:28.378Z,58.00
2017-09-09T10:52:56.774Z,57.40
2017-09-09T10:55:24.391Z,57.40
2017-09-09T10:57:52.353Z,58.10
2017-09-09T11:00:19.962Z,58.30
2017-09-09T11:02:47.567Z,57.90
2017-09-09T11:05:15.540Z,57.80
2017-09-09T11:07:43.149Z,57.80
2017-09-09T11:10:10.741Z,58.00
2017-09-09T11:12:38.440Z,57.80
2017-09-09T11:15:06.816Z,57.70
2017-09-09T11:17:34.810Z,57.70
2017-09-09T11:20:03.171Z,58.10
2017-09-09T11:22:31.543Z,58.20
2017-09-09T11:24:59.182Z,58.20
2017-09-09T11:27:26.941Z,58.10
2017-09-09T11:29:54.561Z,58.40
2017-09-09T11:32:22.182Z,58.60
2017-09-09T11:34:49.787Z,58.40
2017-09-09T11:37:17.400Z,58.20
2017-09-09T11:39:45.034Z,58.10
2017-09-09T11:42:12.766Z,58.30
2017-09-09T11:44:40.792Z,58.20
2017-09-09T11:47:08.397Z,58.60
2017-09-09T11:49:35.987Z,59.00
2017-09-09T11:52:04.004Z,58.80
2017-09-09T11:54:32.391Z,58.50
2017-09-09T11:57:00.767Z,58.60
2017-09-09T11:59:29.493Z,58.80
2017-09-09T12:01:57.111Z,58.70
2017-09-09T12:04:25.537Z,57.60
2017-09-09T12:06:53.545Z,57.50
2017-09-09T12:09:21.159Z,57.60
2017-09-09T12:11:48.793Z,57.90
2017-09-09T12:14:17.311Z,57.50
2017-09-09T12:16:44.915Z,58.10
2017-09-09T12:19:12.516Z,58.10
2017-09-09T12:21:40.560Z,58.20
2017-09-09T12:24:08.931Z,58.50
2017-09-09T12:26:37.293Z,58.90
2017-09-09T12:29:05.238Z,58.70
2017-09-09T12:31:32.865Z,58.60
2017-09-09T12:34:00.481Z,58.30
2017-09-09T12:36:28.118Z,57.60
2017-09-09T12:38:55.725Z,57.60
2017-09-09T12:41:24.503Z,57.60
2017-09-09T12:43:52.288Z,57.60
2017-09-09T12:46:20.656Z,58.20
2017-09-09T12:48:49.543Z,59.00
2017-09-09T12:51:17.904Z,59.00
2017-09-09T12:53:45.512Z,59.00
2017-09-09T12:56:13.532Z,59.60
2017-09-09T12:58:41.189Z,60.60
2017-09-09T13:01:08.803Z,60.10
2017-09-09T13:03:36.446Z,61.40
2017-09-09T13:06:04.816Z,61.60
2017-09-09T13:08:33.589Z,62.80
2017-09-09T13:11:01.207Z,62.80
2017-09-09T13:13:28.828Z,62.40
2017-09-09T13:15:57.278Z,61.80
2017-09-09T13:18:24.884Z,61.80
2017-09-09T13:20:53.638Z,62.60
2017-09-09T13:23:21.244Z,62.50
2017-09-09T13:25:48.842Z,62.70
2017-09-09T13:28:16.926Z,64.10
2017-09-09T13:30:44.800Z,64.20
2017-09-09T13:33:12.406Z,64.30
2017-09-09T13:35:41.299Z,64.10
2017-09-09T13:38:08.912Z,63.50
2017-09-09T13:40:36.555Z,63.90
2017-09-09T13:43:04.545Z,63.90
2017-09-09T13:45:32.139Z,64.40
2017-09-09T13:47:59.722Z,64.60
2017-09-09T13:50:27.339Z,66.00
2017-09-09T13:52:55.722Z,65.20
2017-09-09T13:55:23.764Z,65.10
2017-09-09T13:57:51.367Z,66.60
2017-09-09T14:00:18.974Z,67.00
2017-09-09T14:02:46.600Z,67.60
2017-09-09T14:05:14.193Z,68.30
2017-09-09T14:07:42.914Z,69.70
2017-09-09T14:10:11.277Z,69.40
2017-09-09T14:12:39.670Z,69.30
2017-09-09T14:15:07.294Z,69.40
2017-09-09T14:17:34.920Z,69.30
2017-09-09T14:20:03.049Z,69.10
2017-09-09T14:22:30.869Z,70.20
2017-09-09T14:24:58.472Z,70.60
2017-09-09T14:27:26.543Z,70.00
2017-09-09T14:29:54.143Z,70.30
2017-09-09T14:32:22.515Z,69.20
2017-09-09T14:34:51.268Z,68.80
2017-09-09T14:37:18.869Z,68.70
2017-09-09T14:39:46.523Z,69.40
2017-09-09T14:42:15.246Z,68.50
2017-09-09T14:44:42.865Z,68.50
2017-09-09T14:47:11.235Z,68.00
2017-09-09T14:49:39.285Z,68.00
2017-09-09T14:52:06.901Z,68.00
2017-09-09T14:54:34.498Z,67.60
2017-09-09T14:57:02.106Z,67.00
2017-09-09T14:59:30.473Z,67.10
2017-09-09T15:01:59.244Z,67.50
2017-09-09T15:04:27.772Z,67.40
2017-09-09T15:06:55.362Z,67.00
2017-09-09T15:09:23.398Z,66.90
2017-09-09T15:11:51.008Z,67.40
2017-09-09T15:14:18.613Z,67.30
2017-09-09T15:16:46.246Z,67.40
2017-09-09T15:19:13.845Z,66.90
2017-09-09T15:21:41.814Z,67.50
2017-09-09T15:24:09.410Z,67.70
2017-09-09T15:26:37.012Z,68.10
2017-09-09T15:29:05.742Z,68.50
2017-09-09T15:31:33.342Z,68.50
2017-09-09T15:34:00.951Z,68.90
2017-09-09T15:36:28.566Z,68.80
2017-09-09T15:38:56.972Z,67.60
2017-09-09T15:41:24.570Z,67.70
2017-09-09T15:43:52.196Z,68.10
2017-09-09T15:46:19.790Z,67.00
2017-09-09T15:48:48.529Z,66.80
2017-09-09T15:51:16.910Z,67.00
2017-09-09T15:53:44.546Z,67.00
2017-09-09T15:56:12.617Z,66.60
2017-09-09T15:58:40.220Z,67.00
2017-09-09T16:01:07.813Z,67.50
2017-09-09T16:03:35.905Z,67.90
2017-09-09T16:06:03.498Z,68.30
2017-09-09T16:08:31.878Z,68.00
2017-09-09T16:10:59.840Z,67.90
2017-09-09T16:13:28.223Z,68.50
2017-09-09T16:15:55.871Z,68.50
2017-09-09T16:18:24.249Z,68.80
2017-09-09T16:20:52.689Z,68.80
2017-09-09T16:23:20.693Z,68.80
2017-09-09T16:25:48.322Z,68.70
2017-09-09T16:28:15.929Z,69.10
2017-09-09T16:30:44.711Z,68.80
2017-09-09T16:33:13.068Z,69.10
2017-09-09T16:35:40.668Z,69.00
2017-09-09T16:38:09.400Z,68.70
2017-09-09T16:40:37.764Z,69.00
2017-09-09T16:43:05.568Z,69.00
2017-09-09T16:45:33.509Z,68.50
2017-09-09T16:48:01.201Z,68.80
2017-09-09T16:50:28.809Z,69.00
2017-09-09T16:52:57.215Z,68.70
2017-09-09T16:55:24.992Z,69.30
2017-09-09T16:57:52.974Z,68.80
2017-09-09T17:00:20.624Z,68.60
2017-09-09T17:02:48.472Z,68.90
2017-09-09T17:05:16.103Z,69.40
2017-09-09T17:07:43.704Z,68.70
2017-09-09T17:10:12.447Z,67.50
2017-09-09T17:12:40.093Z,67.50
2017-09-09T17:15:08.480Z,67.70
2017-09-09T17:17:37.190Z,67.90
2017-09-09T17:20:04.794Z,67.90
2017-09-09T17:22:32.401Z,68.30
2017-09-09T17:25:00.394Z,68.70
2017-09-09T17:27:28.001Z,68.80
2017-09-09T17:29:56.475Z,69.00
2017-09-09T17:32:24.362Z,68.70
2017-09-09T17:34:52.849Z,69.00
2017-09-09T17:37:20.450Z,69.00
2017-09-09T17:39:48.096Z,68.80
2017-09-09T17:42:15.695Z,68.80
2017-09-09T17:44:43.660Z,68.70
2017-09-09T17:47:11.262Z,68.90
2017-09-09T17:49:38.874Z,68.70
2017-09-09T17:52:06.480Z,69.00
2017-09-09T17:54:34.089Z,69.10
2017-09-09T17:57:02.026Z,69.70
2017-09-09T17:59:29.621Z,70.70
2017-09-09T18:01:57.310Z,71.30
2017-09-09T18:04:25.694Z,69.70
2017-09-09T18:06:54.102Z,70.70
2017-09-09T18:09:21.833Z,70.60
2017-09-09T18:11:50.201Z,71.60
2017-09-09T18:14:17.823Z,71.60
2017-09-09T18:16:45.467Z,70.60
2017-09-09T18:19:13.044Z,70.20
2017-09-09T18:21:40.773Z,68.90
2017-09-09T18:24:08.390Z,68.80
2017-09-09T18:26:35.985Z,68.80
2017-09-09T18:29:04.387Z,69.20
2017-09-09T18:31:32.003Z,69.10
2017-09-09T18:34:00.661Z,69.20
2017-09-09T18:36:28.269Z,70.00
2017-09-09T18:38:56.682Z,68.50
2017-09-09T18:41:24.305Z,68.50
2017-09-09T18:43:52.668Z,69.00
2017-09-09T18:46:20.561Z,69.00
2017-09-09T18:48:48.930Z,67.80
2017-09-09T18:51:17.350Z,67.90
2017-09-09T18:53:44.969Z,67.90
2017-09-09T18:56:13.371Z,68.60
2017-09-09T18:58:41.858Z,68.70
2017-09-09T19:01:09.488Z,68.70
2017-09-09T19:03:37.880Z,68.50
2017-09-09T19:06:06.281Z,68.70
2017-09-09T19:08:33.878Z,68.70
2017-09-09T19:11:02.406Z,69.50
2017-09-09T19:13:30.026Z,69.50
2017-09-09T19:15:57.637Z,69.60
2017-09-09T19:18:25.622Z,70.40
2017-09-09T19:20:53.231Z,70.50
2017-09-09T19:23:20.980Z,70.20
2017-09-09T19:25:48.590Z,70.10
2017-09-09T19:28:16.213Z,70.00
2017-09-09T19:30:43.936Z,69.90
2017-09-09T19:33:11.544Z,69.80
2017-09-09T19:35:39.930Z,69.30
2017-09-09T19:38:08.383Z,69.30
2017-09-09T19:40:36.659Z,69.30
2017-09-09T19:43:04.265Z,69.10
2017-09-09T19:45:32.184Z,68.60
2017-09-09T19:48:00.573Z,69.40
2017-09-09T19:50:28.169Z,69.40
2017-09-09T19:52:55.895Z,69.20
2017-09-09T19:55:23.506Z,69.20
2017-09-09T19:57:51.562Z,69.30
2017-09-09T20:00:20.889Z,70.50
2017-09-09T20:02:48.577Z,70.50
2017-09-09T20:05:16.979Z,71.10
2017-09-09T20:07:44.661Z,71.10
2017-09-09T20:10:13.281Z,71.60
2017-09-09T20:12:40.925Z,71.50
2017-09-09T20:15:09.199Z,71.50
2017-09-09T20:17:36.903Z,71.30
2017-09-09T20:20:05.240Z,71.50
2017-09-09T20:22:34.334Z,70.50
2017-09-09T20:25:01.966Z,69.80
2017-09-09T20:27:30.343Z,70.30
2017-09-09T20:29:58.775Z,69.60
2017-09-09T20:32:26.417Z,69.60
2017-09-09T20:34:54.218Z,68.70
2017-09-09T20:37:21.849Z,68.40
2017-09-09T20:39:49.471Z,68.00
2017-09-09T20:42:17.869Z,68.40
2017-09-09T20:44:46.274Z,68.70
2017-09-09T20:47:14.389Z,68.60
2017-09-09T20:49:41.998Z,69.20
2017-09-09T20:52:09.595Z,69.30
2017-09-09T20:54:37.249Z,69.60
2017-09-09T20:57:04.845Z,69.90
2017-09-09T20:59:33.579Z,69.60
2017-09-09T21:02:01.212Z,69.40
2017-09-09T21:04:29.584Z,69.90
2017-09-09T21:06:58.368Z,70.30
2017-09-09T21:09:26.740Z,69.90
2017-09-09T21:11:54.365Z,69.80
2017-09-09T21:14:22.340Z,69.20
2017-09-09T21:16:49.949Z,68.50
2017-09-09T21:19:18.364Z,69.20
2017-09-09T21:21:46.312Z,69.10
2017-09-09T21:24:13.908Z,68.80
2017-09-09T21:26:41.529Z,68.30
2017-09-09T21:29:09.188Z,69.50
2017-09-09T21:31:36.821Z,70.40
2017-09-09T21:34:05.595Z,70.60
2017-09-09T21:36:33.221Z,70.40
2017-09-09T21:39:00.859Z,70.00
2017-09-09T21:41:28.468Z,69.80
2017-09-09T21:43:56.106Z,69.70
2017-09-09T21:46:24.050Z,69.60
2017-09-09T21:48:51.652Z,69.50
2017-09-09T21:51:19.266Z,69.60
2017-09-09T21:53:47.302Z,69.80
2017-09-09T21:56:14.907Z,70.30
2017-09-09T21:58:42.496Z,70.20
2017-09-09T22:01:10.137Z,70.00
2017-09-09T22:03:37.852Z,70.30
2017-09-09T22:06:06.619Z,70.60
2017-09-09T22:08:34.226Z,70.60
2017-09-09T22:11:02.589Z,69.70
2017-09-09T22:13:31.362Z,69.50
2017-09-09T22:15:58.987Z,69.40
2017-09-09T22:18:26.583Z,69.50
2017-09-09T22:20:54.214Z,69.60
2017-09-09T22:23:21.810Z,69.20
2017-09-09T22:25:49.877Z,69.20
2017-09-09T22:28:17.472Z,68.80
